sensor_id;sensor_type;location;lat;lon;timestamp;P1;durP1;ratioP1;P2;durP2;ratioP2
58752;SDS011;44525;46.052;13.610;2023-05-19T00:01:56;10.15;;;6.43;;
58752;SDS011;44525;46.052;13.610;2023-05-19T00:04:24;11.77;;;7.30;;
58752;SDS011;44525;46.052;13.610;2023-05-19T00:06:50;12.93;;;6.13;;
58752;SDS011;44525;46.052;13.610;2023-05-19T00:09:16;10.77;;;6.20;;
58752;SDS011;44525;46.052;13.610;2023-05-19T00:11:42;9.93;;;5.57;;
58752;SDS011;44525;46.052;13.610;2023-05-19T00:14:08;10.73;;;6.05;;
58752;SDS011;44525;46.052;13.610;2023-05-19T00:16:34;10.05;;;5.97;;
58752;SDS011;44525;46.052;13.610;2023-05-19T00:19:02;11.23;;;6.43;;
58752;SDS011;44525;46.052;13.610;2023-05-19T00:21:28;12.52;;;6.65;;
58752;SDS011;44525;46.052;13.610;2023-05-19T00:23:55;14.93;;;6.22;;
58752;SDS011;44525;46.052;13.610;2023-05-19T00:26:21;9.68;;;6.05;;
58752;SDS011;44525;46.052;13.610;2023-05-19T00:28:47;8.82;;;5.70;;
58752;SDS011;44525;46.052;13.610;2023-05-19T00:31:13;11.75;;;6.57;;
58752;SDS011;44525;46.052;13.610;2023-05-19T00:33:38;10.75;;;6.05;;
58752;SDS011;44525;46.052;13.610;2023-05-19T00:36:04;8.85;;;6.32;;
58752;SDS011;44525;46.052;13.610;2023-05-19T00:38:30;11.35;;;5.95;;
58752;SDS011;44525;46.052;13.610;2023-05-19T00:40:57;9.02;;;6.40;;
58752;SDS011;44525;46.052;13.610;2023-05-19T00:43:23;11.15;;;6.30;;
58752;SDS011;44525;46.052;13.610;2023-05-19T00:45:48;10.88;;;6.10;;
58752;SDS011;44525;46.052;13.610;2023-05-19T00:48:14;10.48;;;6.07;;
58752;SDS011;44525;46.052;13.610;2023-05-19T00:50:39;9.57;;;5.78;;
58752;SDS011;44525;46.052;13.610;2023-05-19T00:53:05;12.43;;;6.45;;
58752;SDS011;44525;46.052;13.610;2023-05-19T00:55:31;9.35;;;6.10;;
58752;SDS011;44525;46.052;13.610;2023-05-19T00:57:59;8.93;;;6.32;;
58752;SDS011;44525;46.052;13.610;2023-05-19T01:00:25;12.25;;;6.60;;
58752;SDS011;44525;46.052;13.610;2023-05-19T01:02:50;10.48;;;6.05;;
58752;SDS011;44525;46.052;13.610;2023-05-19T01:05:16;11.57;;;6.57;;
58752;SDS011;44525;46.052;13.610;2023-05-19T01:07:41;12.93;;;6.72;;
58752;SDS011;44525;46.052;13.610;2023-05-19T01:10:07;10.50;;;6.70;;
58752;SDS011;44525;46.052;13.610;2023-05-19T01:12:34;11.88;;;7.38;;
58752;SDS011;44525;46.052;13.610;2023-05-19T01:15:00;11.55;;;6.57;;
58752;SDS011;44525;46.052;13.610;2023-05-19T01:17:44;10.70;;;6.20;;
58752;SDS011;44525;46.052;13.610;2023-05-19T01:20:19;16.52;;;10.45;;
58752;SDS011;44525;46.052;13.610;2023-05-19T01:31:11;15.65;;;6.95;;
58752;SDS011;44525;46.052;13.610;2023-05-19T01:33:38;8.93;;;6.30;;
58752;SDS011;44525;46.052;13.610;2023-05-19T01:36:07;9.93;;;6.32;;
58752;SDS011;44525;46.052;13.610;2023-05-19T01:38:36;11.50;;;6.25;;
58752;SDS011;44525;46.052;13.610;2023-05-19T01:41:03;10.77;;;5.93;;
58752;SDS011;44525;46.052;13.610;2023-05-19T01:43:30;9.35;;;5.50;;
58752;SDS011;44525;46.052;13.610;2023-05-19T01:45:57;10.95;;;6.20;;
58752;SDS011;44525;46.052;13.610;2023-05-19T01:48:23;12.07;;;6.38;;
58752;SDS011;44525;46.052;13.610;2023-05-19T01:50:48;11.30;;;6.10;;
58752;SDS011;44525;46.052;13.610;2023-05-19T01:53:15;10.35;;;6.45;;
58752;SDS011;44525;46.052;13.610;2023-05-19T01:55:46;11.25;;;5.75;;
58752;SDS011;44525;46.052;13.610;2023-05-19T01:58:24;12.57;;;6.53;;
58752;SDS011;44525;46.052;13.610;2023-05-19T02:01:15;10.82;;;6.35;;
58752;SDS011;44525;46.052;13.610;2023-05-19T02:06:31;10.90;;;6.65;;
58752;SDS011;44525;46.052;13.610;2023-05-19T02:09:01;12.20;;;6.45;;
58752;SDS011;44525;46.052;13.610;2023-05-19T02:11:45;10.00;;;5.90;;
58752;SDS011;44525;46.052;13.610;2023-05-19T02:14:29;10.55;;;6.45;;
58752;SDS011;44525;46.052;13.610;2023-05-19T02:16:59;10.15;;;6.03;;
58752;SDS011;44525;46.052;13.610;2023-05-19T02:19:30;12.77;;;6.95;;
58752;SDS011;44525;46.052;13.610;2023-05-19T02:21:57;11.82;;;6.78;;
58752;SDS011;44525;46.052;13.610;2023-05-19T02:24:23;13.20;;;6.47;;
58752;SDS011;44525;46.052;13.610;2023-05-19T02:26:49;11.00;;;6.57;;
58752;SDS011;44525;46.052;13.610;2023-05-19T02:29:16;9.35;;;6.18;;
58752;SDS011;44525;46.052;13.610;2023-05-19T02:31:41;10.85;;;6.10;;
58752;SDS011;44525;46.052;13.610;2023-05-19T02:34:06;9.80;;;6.00;;
58752;SDS011;44525;46.052;13.610;2023-05-19T02:36:33;10.15;;;5.72;;
58752;SDS011;44525;46.052;13.610;2023-05-19T02:39:00;10.50;;;6.40;;
58752;SDS011;44525;46.052;13.610;2023-05-19T02:41:26;13.73;;;6.68;;
58752;SDS011;44525;46.052;13.610;2023-05-19T02:43:52;9.48;;;6.40;;
58752;SDS011;44525;46.052;13.610;2023-05-19T02:46:17;9.85;;;5.68;;
58752;SDS011;44525;46.052;13.610;2023-05-19T02:48:42;9.68;;;6.25;;
58752;SDS011;44525;46.052;13.610;2023-05-19T02:51:08;10.75;;;6.47;;
58752;SDS011;44525;46.052;13.610;2023-05-19T02:53:33;12.60;;;5.65;;
58752;SDS011;44525;46.052;13.610;2023-05-19T02:55:58;9.75;;;6.20;;
58752;SDS011;44525;46.052;13.610;2023-05-19T02:58:24;10.63;;;5.90;;
58752;SDS011;44525;46.052;13.610;2023-05-19T03:00:50;9.65;;;6.18;;
58752;SDS011;44525;46.052;13.610;2023-05-19T03:03:15;9.85;;;6.57;;
58752;SDS011;44525;46.052;13.610;2023-05-19T03:05:40;12.93;;;6.43;;
58752;SDS011;44525;46.052;13.610;2023-05-19T03:08:06;11.10;;;5.97;;
58752;SDS011;44525;46.052;13.610;2023-05-19T03:10:31;12.63;;;6.18;;
58752;SDS011;44525;46.052;13.610;2023-05-19T03:12:57;9.50;;;6.22;;
58752;SDS011;44525;46.052;13.610;2023-05-19T03:15:22;11.50;;;5.88;;
58752;SDS011;44525;46.052;13.610;2023-05-19T03:17:47;10.60;;;5.93;;
58752;SDS011;44525;46.052;13.610;2023-05-19T03:20:13;8.65;;;5.70;;
58752;SDS011;44525;46.052;13.610;2023-05-19T03:22:39;9.18;;;5.60;;
58752;SDS011;44525;46.052;13.610;2023-05-19T03:25:05;9.68;;;5.40;;
58752;SDS011;44525;46.052;13.610;2023-05-19T03:27:31;8.50;;;6.03;;
58752;SDS011;44525;46.052;13.610;2023-05-19T03:29:56;9.55;;;6.15;;
58752;SDS011;44525;46.052;13.610;2023-05-19T03:32:21;11.40;;;5.65;;
58752;SDS011;44525;46.052;13.610;2023-05-19T03:34:47;8.45;;;5.60;;
58752;SDS011;44525;46.052;13.610;2023-05-19T03:37:12;8.55;;;5.55;;
58752;SDS011;44525;46.052;13.610;2023-05-19T03:39:37;8.02;;;5.30;;
58752;SDS011;44525;46.052;13.610;2023-05-19T03:42:03;9.70;;;5.50;;
58752;SDS011;44525;46.052;13.610;2023-05-19T03:44:28;9.38;;;5.90;;
58752;SDS011;44525;46.052;13.610;2023-05-19T03:46:54;9.10;;;5.72;;
58752;SDS011;44525;46.052;13.610;2023-05-19T03:49:19;11.52;;;6.20;;
58752;SDS011;44525;46.052;13.610;2023-05-19T03:51:45;8.90;;;5.68;;
58752;SDS011;44525;46.052;13.610;2023-05-19T03:54:10;9.32;;;5.93;;
58752;SDS011;44525;46.052;13.610;2023-05-19T03:56:37;8.10;;;5.50;;
58752;SDS011;44525;46.052;13.610;2023-05-19T03:59:03;9.60;;;5.65;;
58752;SDS011;44525;46.052;13.610;2023-05-19T04:01:32;8.85;;;5.57;;
58752;SDS011;44525;46.052;13.610;2023-05-19T04:03:57;8.98;;;5.50;;
58752;SDS011;44525;46.052;13.610;2023-05-19T04:06:23;8.02;;;5.05;;
58752;SDS011;44525;46.052;13.610;2023-05-19T04:08:48;8.98;;;5.65;;
58752;SDS011;44525;46.052;13.610;2023-05-19T04:11:13;8.02;;;5.93;;
58752;SDS011;44525;46.052;13.610;2023-05-19T04:13:39;8.40;;;5.30;;
58752;SDS011;44525;46.052;13.610;2023-05-19T04:16:04;8.52;;;5.63;;
58752;SDS011;44525;46.052;13.610;2023-05-19T04:18:30;8.52;;;5.28;;
58752;SDS011;44525;46.052;13.610;2023-05-19T04:20:55;10.10;;;5.57;;
58752;SDS011;44525;46.052;13.610;2023-05-19T04:23:21;8.73;;;5.32;;
58752;SDS011;44525;46.052;13.610;2023-05-19T04:25:46;11.18;;;6.57;;
58752;SDS011;44525;46.052;13.610;2023-05-19T04:28:14;10.93;;;5.93;;
58752;SDS011;44525;46.052;13.610;2023-05-19T04:30:40;9.30;;;5.55;;
58752;SDS011;44525;46.052;13.610;2023-05-19T04:33:06;7.35;;;4.80;;
58752;SDS011;44525;46.052;13.610;2023-05-19T04:35:33;10.50;;;5.80;;
58752;SDS011;44525;46.052;13.610;2023-05-19T04:37:58;8.13;;;5.20;;
58752;SDS011;44525;46.052;13.610;2023-05-19T04:40:25;8.40;;;5.47;;
58752;SDS011;44525;46.052;13.610;2023-05-19T04:42:51;8.23;;;5.25;;
58752;SDS011;44525;46.052;13.610;2023-05-19T04:45:18;11.45;;;5.38;;
58752;SDS011;44525;46.052;13.610;2023-05-19T04:47:44;8.48;;;5.40;;
58752;SDS011;44525;46.052;13.610;2023-05-19T04:50:11;8.70;;;5.45;;
58752;SDS011;44525;46.052;13.610;2023-05-19T04:52:38;8.98;;;5.05;;
58752;SDS011;44525;46.052;13.610;2023-05-19T04:55:03;8.23;;;4.65;;
58752;SDS011;44525;46.052;13.610;2023-05-19T04:57:29;7.78;;;4.90;;
58752;SDS011;44525;46.052;13.610;2023-05-19T04:59:55;10.77;;;5.85;;
58752;SDS011;44525;46.052;13.610;2023-05-19T05:02:24;8.73;;;5.28;;
58752;SDS011;44525;46.052;13.610;2023-05-19T05:04:52;7.65;;;5.00;;
58752;SDS011;44525;46.052;13.610;2023-05-19T05:07:19;9.85;;;5.80;;
58752;SDS011;44525;46.052;13.610;2023-05-19T05:09:45;8.82;;;5.25;;
58752;SDS011;44525;46.052;13.610;2023-05-19T05:12:11;7.30;;;4.80;;
58752;SDS011;44525;46.052;13.610;2023-05-19T05:14:37;10.10;;;4.93;;
58752;SDS011;44525;46.052;13.610;2023-05-19T05:17:04;8.23;;;5.35;;
58752;SDS011;44525;46.052;13.610;2023-05-19T05:19:30;7.78;;;5.32;;
58752;SDS011;44525;46.052;13.610;2023-05-19T05:21:56;10.25;;;5.00;;
58752;SDS011;44525;46.052;13.610;2023-05-19T05:24:21;8.48;;;5.22;;
58752;SDS011;44525;46.052;13.610;2023-05-19T05:26:47;9.13;;;5.75;;
58752;SDS011;44525;46.052;13.610;2023-05-19T05:29:12;8.45;;;4.93;;
58752;SDS011;44525;46.052;13.610;2023-05-19T05:31:38;9.63;;;5.43;;
58752;SDS011;44525;46.052;13.610;2023-05-19T05:34:03;8.27;;;5.18;;
58752;SDS011;44525;46.052;13.610;2023-05-19T05:36:29;9.18;;;5.07;;
58752;SDS011;44525;46.052;13.610;2023-05-19T05:38:55;11.38;;;5.85;;
58752;SDS011;44525;46.052;13.610;2023-05-19T05:41:20;10.82;;;5.72;;
58752;SDS011;44525;46.052;13.610;2023-05-19T05:43:46;11.23;;;5.57;;
58752;SDS011;44525;46.052;13.610;2023-05-19T05:46:11;9.48;;;5.10;;
58752;SDS011;44525;46.052;13.610;2023-05-19T05:48:37;9.00;;;5.40;;
58752;SDS011;44525;46.052;13.610;2023-05-19T05:51:02;10.48;;;5.43;;
58752;SDS011;44525;46.052;13.610;2023-05-19T05:53:29;8.90;;;5.75;;
58752;SDS011;44525;46.052;13.610;2023-05-19T05:55:58;11.15;;;5.97;;
58752;SDS011;44525;46.052;13.610;2023-05-19T05:58:24;8.05;;;5.35;;
58752;SDS011;44525;46.052;13.610;2023-05-19T06:00:50;7.32;;;5.30;;
58752;SDS011;44525;46.052;13.610;2023-05-19T06:03:17;10.07;;;5.75;;
58752;SDS011;44525;46.052;13.610;2023-05-19T06:05:48;9.60;;;5.30;;
58752;SDS011;44525;46.052;13.610;2023-05-19T06:08:13;7.72;;;4.75;;
58752;SDS011;44525;46.052;13.610;2023-05-19T06:10:38;9.38;;;4.85;;
58752;SDS011;44525;46.052;13.610;2023-05-19T06:13:05;9.50;;;5.53;;
58752;SDS011;44525;46.052;13.610;2023-05-19T06:15:31;10.85;;;4.80;;
58752;SDS011;44525;46.052;13.610;2023-05-19T06:17:56;8.10;;;5.05;;
58752;SDS011;44525;46.052;13.610;2023-05-19T06:20:21;9.38;;;4.93;;
58752;SDS011;44525;46.052;13.610;2023-05-19T06:22:47;8.35;;;4.60;;
58752;SDS011;44525;46.052;13.610;2023-05-19T06:25:12;7.90;;;4.50;;
58752;SDS011;44525;46.052;13.610;2023-05-19T06:27:37;7.72;;;4.03;;
58752;SDS011;44525;46.052;13.610;2023-05-19T06:30:03;7.38;;;4.53;;
58752;SDS011;44525;46.052;13.610;2023-05-19T06:32:29;7.95;;;4.22;;
58752;SDS011;44525;46.052;13.610;2023-05-19T06:34:54;6.85;;;4.10;;
58752;SDS011;44525;46.052;13.610;2023-05-19T06:37:20;7.68;;;4.20;;
58752;SDS011;44525;46.052;13.610;2023-05-19T06:39:47;6.13;;;3.97;;
58752;SDS011;44525;46.052;13.610;2023-05-19T06:42:21;9.20;;;4.00;;
58752;SDS011;44525;46.052;13.610;2023-05-19T06:44:50;6.90;;;3.85;;
58752;SDS011;44525;46.052;13.610;2023-05-19T06:47:16;6.22;;;3.60;;
58752;SDS011;44525;46.052;13.610;2023-05-19T06:49:43;5.00;;;3.10;;
58752;SDS011;44525;46.052;13.610;2023-05-19T06:52:08;7.20;;;3.55;;
58752;SDS011;44525;46.052;13.610;2023-05-19T06:54:34;5.10;;;3.53;;
58752;SDS011;44525;46.052;13.610;2023-05-19T06:56:59;7.35;;;3.65;;
58752;SDS011;44525;46.052;13.610;2023-05-19T06:59:25;6.22;;;3.30;;
58752;SDS011;44525;46.052;13.610;2023-05-19T07:01:50;5.65;;;3.50;;
58752;SDS011;44525;46.052;13.610;2023-05-19T07:04:15;5.50;;;3.33;;
58752;SDS011;44525;46.052;13.610;2023-05-19T07:06:41;5.93;;;3.38;;
58752;SDS011;44525;46.052;13.610;2023-05-19T07:09:06;5.40;;;3.35;;
58752;SDS011;44525;46.052;13.610;2023-05-19T07:11:32;5.35;;;3.40;;
58752;SDS011;44525;46.052;13.610;2023-05-19T07:13:58;6.22;;;3.25;;
58752;SDS011;44525;46.052;13.610;2023-05-19T07:16:23;8.75;;;3.13;;
58752;SDS011;44525;46.052;13.610;2023-05-19T07:18:48;5.50;;;3.53;;
58752;SDS011;44525;46.052;13.610;2023-05-19T07:21:14;3.97;;;2.90;;
58752;SDS011;44525;46.052;13.610;2023-05-19T07:23:39;5.55;;;3.10;;
58752;SDS011;44525;46.052;13.610;2023-05-19T07:26:05;5.93;;;3.05;;
58752;SDS011;44525;46.052;13.610;2023-05-19T07:28:30;3.72;;;2.70;;
58752;SDS011;44525;46.052;13.610;2023-05-19T07:30:55;6.78;;;3.17;;
58752;SDS011;44525;46.052;13.610;2023-05-19T07:33:21;5.97;;;2.80;;
58752;SDS011;44525;46.052;13.610;2023-05-19T07:35:46;7.35;;;2.90;;
58752;SDS011;44525;46.052;13.610;2023-05-19T07:38:12;4.72;;;2.70;;
58752;SDS011;44525;46.052;13.610;2023-05-19T07:40:37;4.68;;;2.60;;
58752;SDS011;44525;46.052;13.610;2023-05-19T07:43:02;4.40;;;3.00;;
58752;SDS011;44525;46.052;13.610;2023-05-19T07:45:28;4.30;;;3.00;;
58752;SDS011;44525;46.052;13.610;2023-05-19T07:47:53;5.07;;;2.80;;
58752;SDS011;44525;46.052;13.610;2023-05-19T07:50:18;4.47;;;2.65;;
58752;SDS011;44525;46.052;13.610;2023-05-19T07:52:44;8.38;;;3.10;;
58752;SDS011;44525;46.052;13.610;2023-05-19T07:55:09;7.90;;;3.25;;
58752;SDS011;44525;46.052;13.610;2023-05-19T07:57:35;6.78;;;3.03;;
58752;SDS011;44525;46.052;13.610;2023-05-19T08:00:01;4.43;;;2.55;;
58752;SDS011;44525;46.052;13.610;2023-05-19T08:02:31;7.97;;;3.17;;
58752;SDS011;44525;46.052;13.610;2023-05-19T08:04:57;5.40;;;3.10;;
58752;SDS011;44525;46.052;13.610;2023-05-19T08:07:22;4.57;;;2.88;;
58752;SDS011;44525;46.052;13.610;2023-05-19T08:09:48;5.05;;;2.83;;
58752;SDS011;44525;46.052;13.610;2023-05-19T08:12:13;5.07;;;2.83;;
58752;SDS011;44525;46.052;13.610;2023-05-19T08:14:38;4.10;;;2.72;;
58752;SDS011;44525;46.052;13.610;2023-05-19T08:17:04;5.22;;;2.83;;
58752;SDS011;44525;46.052;13.610;2023-05-19T08:19:29;4.13;;;2.90;;
58752;SDS011;44525;46.052;13.610;2023-05-19T08:21:54;4.00;;;2.80;;
58752;SDS011;44525;46.052;13.610;2023-05-19T08:24:20;4.40;;;2.90;;
58752;SDS011;44525;46.052;13.610;2023-05-19T08:26:45;4.72;;;2.92;;
58752;SDS011;44525;46.052;13.610;2023-05-19T08:29:10;5.82;;;3.00;;
58752;SDS011;44525;46.052;13.610;2023-05-19T08:31:36;5.50;;;2.83;;
58752;SDS011;44525;46.052;13.610;2023-05-19T08:34:01;4.13;;;2.80;;
58752;SDS011;44525;46.052;13.610;2023-05-19T08:36:27;4.53;;;2.72;;
58752;SDS011;44525;46.052;13.610;2023-05-19T08:38:53;4.80;;;2.70;;
58752;SDS011;44525;46.052;13.610;2023-05-19T08:41:18;3.97;;;2.63;;
58752;SDS011;44525;46.052;13.610;2023-05-19T08:43:44;4.35;;;2.58;;
58752;SDS011;44525;46.052;13.610;2023-05-19T08:46:09;7.45;;;2.72;;
58752;SDS011;44525;46.052;13.610;2023-05-19T08:48:37;4.00;;;2.90;;
58752;SDS011;44525;46.052;13.610;2023-05-19T08:51:09;4.43;;;2.38;;
58752;SDS011;44525;46.052;13.610;2023-05-19T08:53:50;4.47;;;2.83;;
58752;SDS011;44525;46.052;13.610;2023-05-19T08:56:21;3.40;;;2.42;;
58752;SDS011;44525;46.052;13.610;2023-05-19T08:58:49;4.03;;;2.60;;
58752;SDS011;44525;46.052;13.610;2023-05-19T09:01:15;3.47;;;2.47;;
58752;SDS011;44525;46.052;13.610;2023-05-19T09:03:45;3.63;;;2.30;;
58752;SDS011;44525;46.052;13.610;2023-05-19T09:06:13;5.15;;;2.60;;
58752;SDS011;44525;46.052;13.610;2023-05-19T09:08:39;4.45;;;2.67;;
58752;SDS011;44525;46.052;13.610;2023-05-19T09:11:06;4.20;;;2.60;;
58752;SDS011;44525;46.052;13.610;2023-05-19T09:13:32;3.90;;;2.30;;
58752;SDS011;44525;46.052;13.610;2023-05-19T09:15:58;4.03;;;2.50;;
58752;SDS011;44525;46.052;13.610;2023-05-19T09:18:24;5.63;;;2.88;;
58752;SDS011;44525;46.052;13.610;2023-05-19T09:20:50;4.07;;;2.70;;
58752;SDS011;44525;46.052;13.610;2023-05-19T09:23:23;5.65;;;4.00;;
58752;SDS011;44525;46.052;13.610;2023-05-19T09:25:52;6.68;;;5.22;;
58752;SDS011;44525;46.052;13.610;2023-05-19T09:28:28;5.13;;;3.33;;
58752;SDS011;44525;46.052;13.610;2023-05-19T09:31:02;3.45;;;2.50;;
58752;SDS011;44525;46.052;13.610;2023-05-19T09:33:39;4.72;;;2.15;;
58752;SDS011;44525;46.052;13.610;2023-05-19T09:36:09;3.30;;;2.30;;
58752;SDS011;44525;46.052;13.610;2023-05-19T09:38:35;3.05;;;2.30;;
58752;SDS011;44525;46.052;13.610;2023-05-19T09:41:02;3.60;;;2.45;;
58752;SDS011;44525;46.052;13.610;2023-05-19T09:43:29;3.92;;;2.70;;
58752;SDS011;44525;46.052;13.610;2023-05-19T09:46:07;8.52;;;4.00;;
58752;SDS011;44525;46.052;13.610;2023-05-19T09:48:36;3.97;;;2.78;;
58752;SDS011;44525;46.052;13.610;2023-05-19T09:51:02;3.67;;;2.50;;
58752;SDS011;44525;46.052;13.610;2023-05-19T09:53:30;4.93;;;2.97;;
58752;SDS011;44525;46.052;13.610;2023-05-19T09:55:56;3.83;;;2.30;;
58752;SDS011;44525;46.052;13.610;2023-05-19T09:58:22;5.45;;;2.45;;
58752;SDS011;44525;46.052;13.610;2023-05-19T10:00:48;4.95;;;2.50;;
58752;SDS011;44525;46.052;13.610;2023-05-19T10:03:15;6.90;;;2.70;;
58752;SDS011;44525;46.052;13.610;2023-05-19T10:05:41;9.48;;;2.72;;
58752;SDS011;44525;46.052;13.610;2023-05-19T10:08:07;4.45;;;2.58;;
58752;SDS011;44525;46.052;13.610;2023-05-19T10:10:34;3.65;;;2.38;;
58752;SDS011;44525;46.052;13.610;2023-05-19T10:13:01;6.78;;;2.92;;
58752;SDS011;44525;46.052;13.610;2023-05-19T10:15:29;4.22;;;2.80;;
58752;SDS011;44525;46.052;13.610;2023-05-19T10:17:54;5.85;;;2.40;;
58752;SDS011;44525;46.052;13.610;2023-05-19T10:20:20;3.60;;;2.70;;
58752;SDS011;44525;46.052;13.610;2023-05-19T10:22:45;4.20;;;2.60;;
58752;SDS011;44525;46.052;13.610;2023-05-19T10:25:12;6.38;;;3.03;;
58752;SDS011;44525;46.052;13.610;2023-05-19T10:28:00;5.35;;;2.70;;
58752;SDS011;44525;46.052;13.610;2023-05-19T10:30:32;3.92;;;2.90;;
58752;SDS011;44525;46.052;13.610;2023-05-19T10:33:01;6.07;;;2.78;;
58752;SDS011;44525;46.052;13.610;2023-05-19T10:38:40;4.00;;;2.80;;
58752;SDS011;44525;46.052;13.610;2023-05-19T10:46:23;4.50;;;3.00;;
58752;SDS011;44525;46.052;13.610;2023-05-19T10:48:50;7.68;;;3.47;;
58752;SDS011;44525;46.052;13.610;2023-05-19T10:51:16;4.90;;;3.20;;
58752;SDS011;44525;46.052;13.610;2023-05-19T10:53:41;4.60;;;3.10;;
58752;SDS011;44525;46.052;13.610;2023-05-19T10:56:29;4.70;;;3.10;;
58752;SDS011;44525;46.052;13.610;2023-05-19T10:59:00;5.47;;;3.40;;
58752;SDS011;44525;46.052;13.610;2023-05-19T11:01:33;6.95;;;3.20;;
58752;SDS011;44525;46.052;13.610;2023-05-19T11:04:03;4.70;;;3.13;;
58752;SDS011;44525;46.052;13.610;2023-05-19T11:06:37;7.38;;;3.08;;
58752;SDS011;44525;46.052;13.610;2023-05-19T11:11:51;9.77;;;3.60;;
58752;SDS011;44525;46.052;13.610;2023-05-19T11:14:19;6.22;;;3.15;;
58752;SDS011;44525;46.052;13.610;2023-05-19T11:16:46;4.68;;;2.90;;
58752;SDS011;44525;46.052;13.610;2023-05-19T11:21:51;4.68;;;3.15;;
58752;SDS011;44525;46.052;13.610;2023-05-19T11:27:16;4.88;;;3.17;;
58752;SDS011;44525;46.052;13.610;2023-05-19T11:29:56;5.97;;;3.25;;
58752;SDS011;44525;46.052;13.610;2023-05-19T11:32:27;4.93;;;3.20;;
58752;SDS011;44525;46.052;13.610;2023-05-19T11:34:54;4.50;;;3.10;;
58752;SDS011;44525;46.052;13.610;2023-05-19T11:37:20;7.97;;;3.22;;
58752;SDS011;44525;46.052;13.610;2023-05-19T11:39:46;4.78;;;3.40;;
58752;SDS011;44525;46.052;13.610;2023-05-19T11:42:12;5.50;;;3.40;;
58752;SDS011;44525;46.052;13.610;2023-05-19T11:44:37;5.63;;;3.17;;
58752;SDS011;44525;46.052;13.610;2023-05-19T11:47:05;4.97;;;3.17;;
58752;SDS011;44525;46.052;13.610;2023-05-19T11:49:31;4.78;;;3.35;;
58752;SDS011;44525;46.052;13.610;2023-05-19T11:51:56;7.57;;;3.65;;
58752;SDS011;44525;46.052;13.610;2023-05-19T11:54:31;5.40;;;3.10;;
58752;SDS011;44525;46.052;13.610;2023-05-19T11:56:59;4.00;;;2.85;;
58752;SDS011;44525;46.052;13.610;2023-05-19T11:59:32;5.00;;;3.17;;
58752;SDS011;44525;46.052;13.610;2023-05-19T12:04:44;6.63;;;3.22;;
58752;SDS011;44525;46.052;13.610;2023-05-19T12:07:10;4.47;;;3.20;;
58752;SDS011;44525;46.052;13.610;2023-05-19T12:09:37;4.80;;;3.05;;
58752;SDS011;44525;46.052;13.610;2023-05-19T12:12:03;4.78;;;2.97;;
58752;SDS011;44525;46.052;13.610;2023-05-19T12:14:28;4.78;;;3.08;;
58752;SDS011;44525;46.052;13.610;2023-05-19T12:16:55;4.85;;;3.05;;
58752;SDS011;44525;46.052;13.610;2023-05-19T12:19:23;5.47;;;2.95;;
58752;SDS011;44525;46.052;13.610;2023-05-19T12:21:49;4.45;;;2.92;;
58752;SDS011;44525;46.052;13.610;2023-05-19T12:24:16;5.03;;;3.30;;
58752;SDS011;44525;46.052;13.610;2023-05-19T12:26:42;5.10;;;3.15;;
58752;SDS011;44525;46.052;13.610;2023-05-19T12:29:08;5.93;;;3.00;;
58752;SDS011;44525;46.052;13.610;2023-05-19T12:31:33;4.68;;;2.90;;
58752;SDS011;44525;46.052;13.610;2023-05-19T12:33:59;4.53;;;3.20;;
58752;SDS011;44525;46.052;13.610;2023-05-19T12:36:25;5.55;;;3.20;;
58752;SDS011;44525;46.052;13.610;2023-05-19T12:38:55;6.18;;;3.22;;
58752;SDS011;44525;46.052;13.610;2023-05-19T12:41:20;9.57;;;3.90;;
58752;SDS011;44525;46.052;13.610;2023-05-19T12:43:47;4.28;;;2.85;;
58752;SDS011;44525;46.052;13.610;2023-05-19T12:46:14;5.18;;;3.17;;
58752;SDS011;44525;46.052;13.610;2023-05-19T12:48:44;5.90;;;3.22;;
58752;SDS011;44525;46.052;13.610;2023-05-19T12:51:14;5.82;;;3.40;;
58752;SDS011;44525;46.052;13.610;2023-05-19T12:53:40;5.43;;;3.40;;
58752;SDS011;44525;46.052;13.610;2023-05-19T12:56:12;4.65;;;3.05;;
58752;SDS011;44525;46.052;13.610;2023-05-19T12:58:39;5.43;;;3.20;;
58752;SDS011;44525;46.052;13.610;2023-05-19T13:01:05;4.30;;;3.05;;
58752;SDS011;44525;46.052;13.610;2023-05-19T13:03:37;8.43;;;3.47;;
58752;SDS011;44525;46.052;13.610;2023-05-19T13:06:03;6.15;;;3.45;;
58752;SDS011;44525;46.052;13.610;2023-05-19T13:08:29;8.50;;;3.65;;
58752;SDS011;44525;46.052;13.610;2023-05-19T13:10:54;5.47;;;3.70;;
58752;SDS011;44525;46.052;13.610;2023-05-19T13:13:20;7.55;;;3.72;;
58752;SDS011;44525;46.052;13.610;2023-05-19T13:15:46;4.97;;;3.40;;
58752;SDS011;44525;46.052;13.610;2023-05-19T13:18:15;5.00;;;3.20;;
58752;SDS011;44525;46.052;13.610;2023-05-19T13:20:42;6.47;;;3.63;;
58752;SDS011;44525;46.052;13.610;2023-05-19T13:23:11;8.98;;;3.55;;
58752;SDS011;44525;46.052;13.610;2023-05-19T13:25:38;5.35;;;3.30;;
58752;SDS011;44525;46.052;13.610;2023-05-19T13:28:05;7.60;;;3.58;;
58752;SDS011;44525;46.052;13.610;2023-05-19T13:30:34;6.20;;;3.75;;
58752;SDS011;44525;46.052;13.610;2023-05-19T13:33:01;5.40;;;3.20;;
58752;SDS011;44525;46.052;13.610;2023-05-19T13:35:27;6.45;;;3.47;;
58752;SDS011;44525;46.052;13.610;2023-05-19T13:37:52;6.60;;;3.53;;
58752;SDS011;44525;46.052;13.610;2023-05-19T13:40:18;5.93;;;3.67;;
58752;SDS011;44525;46.052;13.610;2023-05-19T13:42:43;6.53;;;3.80;;
58752;SDS011;44525;46.052;13.610;2023-05-19T13:45:09;5.47;;;3.50;;
58752;SDS011;44525;46.052;13.610;2023-05-19T13:47:35;5.38;;;3.47;;
58752;SDS011;44525;46.052;13.610;2023-05-19T13:50:01;8.70;;;3.97;;
58752;SDS011;44525;46.052;13.610;2023-05-19T13:52:28;5.18;;;3.47;;
58752;SDS011;44525;46.052;13.610;2023-05-19T13:54:53;6.72;;;3.90;;
58752;SDS011;44525;46.052;13.610;2023-05-19T13:57:20;5.43;;;3.80;;
58752;SDS011;44525;46.052;13.610;2023-05-19T13:59:47;7.72;;;4.88;;
58752;SDS011;44525;46.052;13.610;2023-05-19T14:02:12;6.40;;;4.00;;
58752;SDS011;44525;46.052;13.610;2023-05-19T14:04:38;5.57;;;4.00;;
58752;SDS011;44525;46.052;13.610;2023-05-19T14:07:04;8.27;;;4.03;;
58752;SDS011;44525;46.052;13.610;2023-05-19T14:09:30;6.53;;;3.97;;
58752;SDS011;44525;46.052;13.610;2023-05-19T14:11:55;5.43;;;3.58;;
58752;SDS011;44525;46.052;13.610;2023-05-19T14:14:21;9.45;;;5.88;;
58752;SDS011;44525;46.052;13.610;2023-05-19T14:16:46;6.63;;;3.92;;
58752;SDS011;44525;46.052;13.610;2023-05-19T14:19:12;6.20;;;4.45;;
58752;SDS011;44525;46.052;13.610;2023-05-19T14:21:38;5.85;;;3.92;;
58752;SDS011;44525;46.052;13.610;2023-05-19T14:24:03;6.78;;;3.92;;
58752;SDS011;44525;46.052;13.610;2023-05-19T14:26:29;6.25;;;4.20;;
58752;SDS011;44525;46.052;13.610;2023-05-19T14:28:54;6.30;;;4.22;;
58752;SDS011;44525;46.052;13.610;2023-05-19T14:31:21;5.47;;;3.63;;
58752;SDS011;44525;46.052;13.610;2023-05-19T14:33:46;9.32;;;4.38;;
58752;SDS011;44525;46.052;13.610;2023-05-19T14:36:12;7.95;;;4.20;;
58752;SDS011;44525;46.052;13.610;2023-05-19T14:38:37;7.13;;;4.47;;
58752;SDS011;44525;46.052;13.610;2023-05-19T14:41:02;7.63;;;4.07;;
58752;SDS011;44525;46.052;13.610;2023-05-19T14:43:28;6.97;;;3.97;;
58752;SDS011;44525;46.052;13.610;2023-05-19T14:45:54;6.30;;;4.00;;
58752;SDS011;44525;46.052;13.610;2023-05-19T14:48:20;6.68;;;3.97;;
58752;SDS011;44525;46.052;13.610;2023-05-19T14:50:45;7.22;;;4.28;;
58752;SDS011;44525;46.052;13.610;2023-05-19T14:53:14;6.20;;;3.80;;
58752;SDS011;44525;46.052;13.610;2023-05-19T14:55:40;7.50;;;4.20;;
58752;SDS011;44525;46.052;13.610;2023-05-19T14:58:05;6.30;;;3.88;;
58752;SDS011;44525;46.052;13.610;2023-05-19T15:00:31;6.72;;;3.85;;